createdAt,value
2022-11-05T00:02:23.374Z,83.30
2022-11-05T00:05:08.583Z,83.40
2022-11-05T00:07:55.584Z,83.40
2022-11-05T00:10:25.929Z,83.40
2022-11-05T00:13:15.149Z,83.40
2022-11-05T00:16:03.361Z,83.40
2022-11-05T00:18:30.507Z,83.50
2022-11-05T00:20:57.460Z,83.50
2022-11-05T00:23:43.181Z,83.50
2022-11-05T00:26:12.666Z,83.50
2022-11-05T00:28:43.938Z,83.60
2022-11-05T00:31:12.961Z,83.60
2022-11-05T00:33:43.491Z,83.60
2022-11-05T00:36:11.427Z,83.70
2022-11-05T00:38:38.410Z,83.70
2022-11-05T00:41:05.573Z,83.70
2022-11-05T00:43:52.141Z,83.70
2022-11-05T00:46:23.276Z,83.80
2022-11-05T00:49:11.697Z,83.80
2022-11-05T00:51:38.504Z,83.80
2022-11-05T00:54:05.408Z,83.70
2022-11-05T00:56:32.660Z,83.70
2022-11-05T00:59:01.139Z,83.70
2022-11-05T01:01:28.169Z,83.80
2022-11-05T01:03:55.472Z,83.80
2022-11-05T01:06:22.589Z,83.70
2022-11-05T01:08:49.638Z,83.90
2022-11-05T01:11:33.399Z,84.00
2022-11-05T01:14:07.974Z,84.00
2022-11-05T01:16:34.943Z,84.00
2022-11-05T01:19:02.228Z,84.00
2022-11-05T01:21:29.010Z,83.90
2022-11-05T01:23:55.989Z,83.90
2022-11-05T01:26:23.373Z,83.90
2022-11-05T01:28:52.649Z,84.00
2022-11-05T01:31:21.200Z,84.00
2022-11-05T01:33:48.339Z,84.00
2022-11-05T01:36:15.151Z,84.00
2022-11-05T01:38:42.184Z,84.10
2022-11-05T01:41:09.590Z,84.00
2022-11-05T01:43:48.022Z,84.00
2022-11-05T01:46:17.117Z,84.10
2022-11-05T01:48:46.915Z,84.10
2022-11-05T01:51:15.886Z,84.10
2022-11-05T01:53:47.143Z,84.10
2022-11-05T01:56:18.123Z,84.10
2022-11-05T01:58:48.787Z,84.10
2022-11-05T02:01:16.542Z,84.20
2022-11-05T02:03:46.459Z,84.20
2022-11-05T02:06:16.246Z,84.40
2022-11-05T02:08:53.871Z,84.40
2022-11-05T02:11:20.953Z,84.60
2022-11-05T02:13:48.599Z,84.70
2022-11-05T02:16:23.792Z,84.80
2022-11-05T02:19:00.429Z,84.80
2022-11-05T02:21:47.314Z,84.70
2022-11-05T02:24:51.898Z,84.90
2022-11-05T02:27:25.597Z,84.20
2022-11-05T02:30:22.522Z,84.50
2022-11-05T02:33:07.407Z,84.40
2022-11-05T02:35:56.554Z,84.60
2022-11-05T02:38:36.268Z,84.70
2022-11-05T02:41:10.295Z,84.60
2022-11-05T02:43:45.940Z,84.60
2022-11-05T02:46:26.925Z,84.50
2022-11-05T02:49:00.540Z,84.50
2022-11-05T02:51:32.905Z,84.60
2022-11-05T02:54:09.452Z,84.60
2022-11-05T02:56:39.935Z,84.70
2022-11-05T02:59:06.792Z,84.60
2022-11-05T03:01:35.742Z,84.70
2022-11-05T03:04:07.027Z,84.60
2022-11-05T03:06:51.124Z,84.50
2022-11-05T03:09:50.660Z,84.70
2022-11-05T03:12:30.258Z,84.60
2022-11-05T03:15:08.039Z,84.70
2022-11-05T03:17:42.017Z,84.70
2022-11-05T03:20:20.003Z,84.80
2022-11-05T03:22:52.164Z,84.80
2022-11-05T03:25:22.929Z,84.70
2022-11-05T03:27:55.754Z,84.70
2022-11-05T03:30:24.825Z,84.60
2022-11-05T03:32:57.985Z,84.70
2022-11-05T03:35:30.490Z,84.80
2022-11-05T03:38:03.054Z,84.80
2022-11-05T03:40:34.211Z,84.80
2022-11-05T03:43:06.978Z,84.70
2022-11-05T03:45:38.356Z,84.70
2022-11-05T03:48:07.599Z,84.70
2022-11-05T03:50:41.611Z,84.70
2022-11-05T03:53:22.013Z,84.80
2022-11-05T03:55:54.463Z,84.90
2022-11-05T03:58:23.062Z,84.80
2022-11-05T04:00:51.225Z,85.00
2022-11-05T04:03:18.034Z,85.00
2022-11-05T04:06:06.201Z,85.10
2022-11-05T04:08:51.382Z,85.20
2022-11-05T04:11:36.642Z,85.20
2022-11-05T04:14:03.608Z,85.00
2022-11-05T04:16:49.020Z,85.10
2022-11-05T04:19:35.983Z,85.10
2022-11-05T04:22:23.251Z,85.20
2022-11-05T04:24:50.147Z,85.00
2022-11-05T04:27:17.408Z,85.10
2022-11-05T04:30:06.429Z,85.10
2022-11-05T04:32:33.334Z,85.40
2022-11-05T04:35:03.337Z,85.40
2022-11-05T04:37:31.805Z,85.40
2022-11-05T04:39:58.716Z,85.50
2022-11-05T04:42:25.711Z,85.40
2022-11-05T04:44:52.571Z,85.50
2022-11-05T04:47:19.492Z,85.50
2022-11-05T04:49:46.430Z,85.50
2022-11-05T04:52:13.765Z,85.40
2022-11-05T04:54:42.007Z,85.30
2022-11-05T04:57:08.786Z,85.50
2022-11-05T04:59:35.691Z,85.50
2022-11-05T05:02:02.795Z,85.40
2022-11-05T05:04:29.787Z,85.50
2022-11-05T05:06:56.903Z,85.30
2022-11-05T05:09:23.864Z,84.90
2022-11-05T05:11:52.458Z,85.10
2022-11-05T05:14:19.518Z,85.10
2022-11-05T05:16:46.315Z,85.00
2022-11-05T05:19:13.218Z,85.10
2022-11-05T05:21:40.860Z,85.00
2022-11-05T05:24:12.166Z,85.10
2022-11-05T05:26:41.056Z,85.20
2022-11-05T05:29:10.200Z,85.20
2022-11-05T05:31:37.141Z,85.20
2022-11-05T05:34:04.687Z,85.20
2022-11-05T05:36:31.749Z,85.20
2022-11-05T05:38:58.638Z,85.00
2022-11-05T05:41:25.806Z,85.10
2022-11-05T05:43:52.681Z,85.10
2022-11-05T05:46:21.296Z,85.30
2022-11-05T05:48:49.655Z,85.30
2022-11-05T05:51:17.572Z,85.30
2022-11-05T05:53:44.540Z,85.40
2022-11-05T05:56:14.824Z,85.30
2022-11-05T05:58:41.868Z,85.10
2022-11-05T06:01:17.257Z,85.50
2022-11-05T06:03:47.516Z,85.50
2022-11-05T06:06:16.224Z,85.40
2022-11-05T06:08:43.053Z,85.30
2022-11-05T06:11:09.920Z,85.30
2022-11-05T06:13:37.696Z,85.50
2022-11-05T06:16:08.807Z,85.30
2022-11-05T06:18:36.194Z,85.40
2022-11-05T06:21:05.977Z,85.40
2022-11-05T06:23:33.715Z,85.50
2022-11-05T06:26:01.352Z,85.40
2022-11-05T06:28:29.589Z,85.60
2022-11-05T06:30:56.501Z,85.30
2022-11-05T06:33:23.638Z,85.50
2022-11-05T06:35:50.495Z,85.70
2022-11-05T06:38:18.945Z,85.80
2022-11-05T06:40:45.816Z,85.90
2022-11-05T06:43:15.654Z,85.80
2022-11-05T06:45:43.077Z,85.80
2022-11-05T06:48:09.885Z,85.80
2022-11-05T06:50:36.704Z,85.70
2022-11-05T06:53:05.002Z,85.80
2022-11-05T06:55:36.723Z,85.60
2022-11-05T06:58:03.623Z,85.80
2022-11-05T07:00:31.013Z,85.80
2022-11-05T07:03:04.045Z,85.50
2022-11-05T07:05:32.010Z,85.70
2022-11-05T07:07:58.922Z,85.80
2022-11-05T07:10:28.804Z,85.70
2022-11-05T07:12:57.077Z,85.60
2022-11-05T07:15:23.917Z,85.70
2022-11-05T07:17:58.155Z,85.90
2022-11-05T07:20:29.378Z,85.90
2022-11-05T07:23:03.668Z,86.10
2022-11-05T07:25:32.213Z,85.90
2022-11-05T07:28:00.934Z,86.10
2022-11-05T07:30:29.071Z,86.00
2022-11-05T07:32:56.584Z,86.00
2022-11-05T07:35:23.799Z,86.00
2022-11-05T07:37:53.979Z,85.80
2022-11-05T07:40:22.714Z,86.00
2022-11-05T07:42:53.434Z,85.70
2022-11-05T07:45:22.613Z,86.00
2022-11-05T07:47:51.148Z,86.10
2022-11-05T07:50:19.818Z,86.30
2022-11-05T07:52:50.040Z,86.00
2022-11-05T07:55:20.327Z,86.20
2022-11-05T07:57:48.915Z,85.90
2022-11-05T08:00:17.558Z,86.20
2022-11-05T08:02:59.626Z,86.20
2022-11-05T08:05:29.949Z,86.20
2022-11-05T08:08:00.223Z,86.20
2022-11-05T08:10:27.642Z,86.10
2022-11-05T08:12:54.982Z,86.00
2022-11-05T08:15:22.522Z,86.40
2022-11-05T08:17:57.373Z,86.90
2022-11-05T08:20:24.815Z,87.40
2022-11-05T08:22:51.743Z,87.90
2022-11-05T08:25:21.286Z,86.90
2022-11-05T08:27:54.435Z,86.70
2022-11-05T08:30:21.239Z,86.70
2022-11-05T08:32:48.546Z,86.20
2022-11-05T08:35:17.545Z,85.70
2022-11-05T08:37:44.430Z,85.60
2022-11-05T08:40:12.003Z,84.50
2022-11-05T08:42:38.781Z,84.10
2022-11-05T08:45:07.294Z,83.80
2022-11-05T08:47:34.264Z,83.50
2022-11-05T08:50:01.573Z,82.90
2022-11-05T08:52:29.769Z,81.60
2022-11-05T08:54:56.583Z,82.30
2022-11-05T08:57:23.476Z,82.40
2022-11-05T08:59:50.478Z,82.20
2022-11-05T09:02:17.475Z,82.10
2022-11-05T09:04:45.396Z,82.20
2022-11-05T09:07:12.259Z,82.20
2022-11-05T09:09:40.488Z,82.20
2022-11-05T09:12:12.743Z,81.80
2022-11-05T09:14:40.091Z,82.20
2022-11-05T09:17:15.679Z,81.60
2022-11-05T09:19:42.496Z,81.60
2022-11-05T09:22:12.619Z,81.70
2022-11-05T09:24:41.461Z,82.00
2022-11-05T09:27:14.505Z,81.70
2022-11-05T09:29:42.001Z,81.80
2022-11-05T09:32:09.758Z,81.80
2022-11-05T09:34:36.885Z,81.90
2022-11-05T09:37:05.838Z,82.10
2022-11-05T09:39:32.687Z,82.00
2022-11-05T09:42:04.821Z,82.00
2022-11-05T09:44:38.824Z,81.90
2022-11-05T09:47:10.898Z,82.00
2022-11-05T09:49:41.251Z,82.00
2022-11-05T09:52:14.002Z,81.90
2022-11-05T09:54:41.491Z,81.80
2022-11-05T09:57:14.876Z,81.90
2022-11-05T09:59:44.831Z,81.90
2022-11-05T10:02:17.150Z,82.00
2022-11-05T10:04:47.141Z,81.90
2022-11-05T10:07:18.585Z,81.70
2022-11-05T10:09:49.063Z,81.80
2022-11-05T10:12:23.935Z,81.60
2022-11-05T10:15:02.939Z,81.50
2022-11-05T10:17:37.864Z,81.60
2022-11-05T10:20:15.007Z,81.40
2022-11-05T10:22:48.166Z,81.30
2022-11-05T10:25:21.872Z,81.20
2022-11-05T10:27:54.532Z,81.30
2022-11-05T10:30:22.003Z,81.30
2022-11-05T10:32:52.254Z,81.20
2022-11-05T10:35:22.558Z,81.20
2022-11-05T10:37:51.013Z,81.20
2022-11-05T10:40:28.136Z,81.30
2022-11-05T10:43:04.473Z,81.10
2022-11-05T10:45:44.761Z,81.10
2022-11-05T10:48:44.204Z,81.20
2022-11-05T10:51:13.075Z,81.10
2022-11-05T10:53:45.767Z,81.10
2022-11-05T10:56:28.401Z,81.10
2022-11-05T10:58:59.158Z,80.90
2022-11-05T11:01:27.099Z,80.80
2022-11-05T11:04:06.898Z,80.80
2022-11-05T11:06:38.002Z,80.70
2022-11-05T11:09:08.049Z,80.80
2022-11-05T11:11:37.240Z,80.80
2022-11-05T11:14:17.893Z,80.80
2022-11-05T11:16:46.471Z,80.80
2022-11-05T11:19:25.708Z,80.60
2022-11-05T11:22:18.979Z,80.70
2022-11-05T11:24:48.215Z,80.70
2022-11-05T11:27:18.633Z,80.60
2022-11-05T11:29:50.011Z,80.50
2022-11-05T11:32:19.425Z,80.30
2022-11-05T11:34:51.664Z,80.40
2022-11-05T11:37:23.161Z,80.40
2022-11-05T11:39:55.882Z,80.40
2022-11-05T11:42:28.030Z,80.30
2022-11-05T11:44:59.734Z,80.20
2022-11-05T11:47:29.286Z,80.30
2022-11-05T11:49:57.981Z,80.30
2022-11-05T11:52:29.523Z,79.60
2022-11-05T11:55:19.433Z,79.00
2022-11-05T11:57:48.490Z,78.90
2022-11-05T12:00:18.315Z,78.40
2022-11-05T12:03:02.057Z,78.40
2022-11-05T12:05:36.244Z,78.50
2022-11-05T12:08:19.034Z,78.50
2022-11-05T12:10:55.322Z,78.00
2022-11-05T12:13:54.553Z,77.90
2022-11-05T12:16:58.245Z,77.30
2022-11-05T12:19:40.353Z,77.70
2022-11-05T12:22:19.794Z,77.40
2022-11-05T12:25:08.793Z,77.30
2022-11-05T12:27:49.587Z,77.20
2022-11-05T12:30:18.833Z,77.10
2022-11-05T12:33:14.312Z,76.80
2022-11-05T12:35:56.507Z,76.70
2022-11-05T12:38:36.818Z,77.30
2022-11-05T12:41:17.506Z,77.10
2022-11-05T12:43:56.082Z,77.20
2022-11-05T12:46:28.236Z,77.00
2022-11-05T12:49:23.130Z,77.30
2022-11-05T12:52:07.256Z,77.20
2022-11-05T12:54:46.839Z,77.10
2022-11-05T12:57:15.831Z,77.30
2022-11-05T12:59:49.684Z,77.30
2022-11-05T13:02:26.661Z,77.00
2022-11-05T13:04:59.302Z,76.80
2022-11-05T13:07:30.516Z,76.90
2022-11-05T13:10:03.284Z,77.00
2022-11-05T13:12:34.172Z,77.20
2022-11-05T13:15:04.859Z,77.00
2022-11-05T13:17:49.194Z,77.10
2022-11-05T13:20:21.254Z,76.90
2022-11-05T13:22:52.692Z,77.00
2022-11-05T13:25:25.507Z,76.90
2022-11-05T13:27:58.605Z,76.90
2022-11-05T13:30:29.705Z,77.00
2022-11-05T13:33:02.193Z,76.90
2022-11-05T13:35:36.830Z,77.00
2022-11-05T13:38:26.266Z,77.00
2022-11-05T13:41:09.294Z,77.00
2022-11-05T13:44:01.147Z,76.90
2022-11-05T13:46:40.577Z,76.70
2022-11-05T13:49:29.345Z,77.00
2022-11-05T13:52:04.069Z,77.00
2022-11-05T13:54:56.173Z,77.00
2022-11-05T13:57:55.670Z,77.00
2022-11-05T14:00:23.956Z,77.10
2022-11-05T14:02:55.742Z,77.10
2022-11-05T14:05:29.237Z,77.20
2022-11-05T14:08:00.080Z,77.10
2022-11-05T14:10:34.079Z,77.10
2022-11-05T14:13:08.476Z,77.00
2022-11-05T14:15:36.259Z,76.80
2022-11-05T14:18:04.988Z,76.90
2022-11-05T14:20:42.733Z,76.90
2022-11-05T14:23:41.900Z,77.00
2022-11-05T14:26:30.094Z,77.10
2022-11-05T14:29:24.404Z,77.10
2022-11-05T14:32:12.289Z,77.20
2022-11-05T14:34:54.145Z,77.30
2022-11-05T14:37:30.487Z,77.30
2022-11-05T14:40:20.957Z,77.40
2022-11-05T14:42:51.560Z,77.50
2022-11-05T14:45:28.098Z,77.70
2022-11-05T14:47:57.018Z,77.70
2022-11-05T14:50:31.611Z,77.70
2022-11-05T14:53:04.624Z,77.70
2022-11-05T14:55:39.228Z,77.80
2022-11-05T14:58:27.056Z,77.90
2022-11-05T15:00:54.646Z,77.90
2022-11-05T15:03:58.405Z,78.00
2022-11-05T15:06:28.698Z,78.10
2022-11-05T15:09:12.975Z,78.20
2022-11-05T15:11:45.657Z,78.30
2022-11-05T15:14:21.737Z,78.20
2022-11-05T15:16:52.191Z,78.30
2022-11-05T15:19:23.169Z,78.20
2022-11-05T15:21:51.042Z,78.30
2022-11-05T15:24:21.484Z,78.30
2022-11-05T15:26:55.926Z,78.30
2022-11-05T15:29:27.107Z,78.30
2022-11-05T15:31:54.165Z,78.50
2022-11-05T15:34:24.384Z,78.40
2022-11-05T15:36:56.184Z,78.50
2022-11-05T15:39:30.509Z,78.50
2022-11-05T15:42:01.577Z,78.60
2022-11-05T15:44:30.929Z,78.60
2022-11-05T15:47:25.905Z,78.60
2022-11-05T15:49:55.081Z,78.70
2022-11-05T15:52:24.558Z,78.80
2022-11-05T15:55:10.495Z,78.70
2022-11-05T15:57:47.837Z,78.90
2022-11-05T16:00:19.358Z,79.00
2022-11-05T16:02:53.844Z,79.00
2022-11-05T16:05:21.748Z,79.00
2022-11-05T16:07:48.892Z,79.00
2022-11-05T16:10:21.059Z,79.10
2022-11-05T16:12:49.399Z,79.10
2022-11-05T16:15:23.353Z,79.10
2022-11-05T16:17:53.588Z,79.20
2022-11-05T16:20:31.990Z,79.40
2022-11-05T16:23:01.090Z,79.50
2022-11-05T16:25:37.340Z,79.60
2022-11-05T16:28:07.584Z,79.60
2022-11-05T16:30:34.923Z,79.60
2022-11-05T16:33:07.105Z,79.70
2022-11-05T16:35:38.314Z,79.90
2022-11-05T16:38:06.306Z,79.90
2022-11-05T16:40:33.397Z,79.90
2022-11-05T16:43:18.673Z,80.00
2022-11-05T16:45:45.661Z,80.00
2022-11-05T16:48:14.035Z,80.00
2022-11-05T16:50:41.986Z,80.20
2022-11-05T16:53:08.952Z,80.20
2022-11-05T16:55:38.819Z,80.20
2022-11-05T16:58:15.089Z,80.30
2022-11-05T17:00:43.531Z,80.40
2022-11-05T17:03:10.444Z,80.50
2022-11-05T17:05:37.693Z,80.60
2022-11-05T17:08:04.888Z,80.60
2022-11-05T17:10:31.876Z,80.70
2022-11-05T17:12:58.795Z,80.90
2022-11-05T17:15:27.455Z,81.00
2022-11-05T17:17:56.801Z,80.70
2022-11-05T17:20:32.425Z,81.00
2022-11-05T17:23:02.542Z,81.00
2022-11-05T17:25:29.431Z,80.90
2022-11-05T17:27:56.873Z,81.10
2022-11-05T17:30:24.451Z,81.20
2022-11-05T17:32:51.674Z,81.30
2022-11-05T17:35:23.723Z,81.20
2022-11-05T17:37:51.266Z,81.40
2022-11-05T17:40:22.309Z,81.30
2022-11-05T17:42:50.417Z,81.40
2022-11-05T17:45:17.722Z,81.40
2022-11-05T17:47:47.604Z,81.40
2022-11-05T17:50:18.851Z,81.40
2022-11-05T17:52:47.284Z,81.50
2022-11-05T17:55:17.391Z,81.50
2022-11-05T17:57:52.914Z,81.50
2022-11-05T18:00:21.526Z,81.60
2022-11-05T18:02:49.723Z,81.50
2022-11-05T18:05:18.456Z,81.70
2022-11-05T18:07:47.614Z,81.70
2022-11-05T18:10:15.585Z,81.70
2022-11-05T18:13:15.019Z,81.70
2022-11-05T18:16:03.681Z,81.70
2022-11-05T18:18:31.340Z,81.70
2022-11-05T18:24:41.629Z,81.70
2022-11-05T18:27:50.981Z,82.00
2022-11-05T18:30:14.221Z,82.00
2022-11-05T18:32:41.421Z,81.80
2022-11-05T18:35:09.628Z,81.90
2022-11-05T18:37:37.478Z,82.00
2022-11-05T18:40:07.047Z,82.10
2022-11-05T18:42:34.038Z,82.20
2022-11-05T18:45:00.895Z,82.20
2022-11-05T18:47:28.217Z,82.10
2022-11-05T18:49:55.046Z,82.30
2022-11-05T18:52:22.312Z,82.20
2022-11-05T18:54:49.188Z,82.30
2022-11-05T18:57:18.214Z,82.20
2022-11-05T18:59:46.750Z,82.20
2022-11-05T19:02:14.511Z,82.10
2022-11-05T19:05:00.296Z,82.10
2022-11-05T19:07:29.296Z,82.10
2022-11-05T19:09:56.383Z,82.10
2022-11-05T19:12:25.129Z,82.00
2022-11-05T19:14:52.098Z,82.00
2022-11-05T19:17:19.371Z,82.10
2022-11-05T19:19:46.346Z,82.10
2022-11-05T19:22:13.502Z,82.10
2022-11-05T19:24:40.274Z,82.10
2022-11-05T19:27:07.321Z,82.10
2022-11-05T19:29:35.470Z,82.20
2022-11-05T19:32:02.286Z,82.20
2022-11-05T19:34:29.130Z,82.10
2022-11-05T19:36:56.311Z,82.20
2022-11-05T19:39:23.140Z,82.20
2022-11-05T19:41:51.486Z,82.20
2022-11-05T19:44:18.982Z,82.20
2022-11-05T19:46:47.218Z,82.20
2022-11-05T19:49:14.155Z,82.20
2022-11-05T19:51:41.265Z,82.10
2022-11-05T19:54:09.501Z,82.20
2022-11-05T19:56:38.684Z,82.20
2022-11-05T19:59:07.008Z,82.10
2022-11-05T20:01:37.234Z,82.20
2022-11-05T20:04:05.952Z,82.20
2022-11-05T20:06:40.227Z,82.20
2022-11-05T20:09:26.786Z,82.20
2022-11-05T20:11:56.469Z,82.20
2022-11-05T20:14:25.078Z,82.20
2022-11-05T20:16:52.853Z,82.20
2022-11-05T20:19:23.060Z,82.30
2022-11-05T20:21:50.070Z,82.30
2022-11-05T20:24:24.254Z,82.30
2022-11-05T20:26:52.309Z,82.30
2022-11-05T20:29:19.167Z,82.40
2022-11-05T20:31:46.896Z,82.30
2022-11-05T20:34:13.852Z,82.30
2022-11-05T20:36:43.068Z,82.40
2022-11-05T20:39:11.947Z,82.40
2022-11-05T20:41:38.852Z,82.40
2022-11-05T20:44:10.923Z,82.40
2022-11-05T20:46:37.790Z,82.50
2022-11-05T20:49:05.282Z,82.60
2022-11-05T20:51:32.128Z,82.60
2022-11-05T20:54:01.693Z,82.60
2022-11-05T20:56:30.549Z,82.60
2022-11-05T20:58:58.717Z,82.60
2022-11-05T21:01:26.747Z,82.60
2022-11-05T21:03:53.957Z,82.60
2022-11-05T21:06:21.292Z,82.70
2022-11-05T21:08:49.992Z,82.70
2022-11-05T21:11:20.015Z,82.70
2022-11-05T21:13:50.866Z,82.70
2022-11-05T21:16:19.940Z,82.70
2022-11-05T21:18:48.727Z,82.70
2022-11-05T21:21:17.502Z,82.70
2022-11-05T21:23:44.366Z,82.80
2022-11-05T21:26:13.310Z,82.80
2022-11-05T21:28:41.846Z,82.70
2022-11-05T21:31:09.096Z,82.80
2022-11-05T21:33:36.221Z,82.80
2022-11-05T21:36:08.166Z,82.90
2022-11-05T21:38:35.314Z,82.90
2022-11-05T21:41:12.497Z,83.00
2022-11-05T21:43:42.470Z,83.00
2022-11-05T21:46:14.021Z,83.00
2022-11-05T21:48:41.335Z,83.00
2022-11-05T21:51:29.079Z,82.90
2022-11-05T21:54:14.949Z,82.90
2022-11-05T21:57:03.479Z,82.90
2022-11-05T21:59:48.521Z,82.90
2022-11-05T22:02:17.291Z,82.90
2022-11-05T22:04:45.753Z,82.90
2022-11-05T22:07:14.886Z,83.00
2022-11-05T22:09:41.908Z,82.90
2022-11-05T22:12:09.664Z,83.00
2022-11-05T22:14:39.095Z,83.00
2022-11-05T22:17:07.063Z,83.10
2022-11-05T22:19:34.421Z,83.10
2022-11-05T22:22:01.639Z,83.10
2022-11-05T22:24:30.487Z,83.10
2022-11-05T22:26:58.371Z,83.10
2022-11-05T22:29:25.625Z,83.10
2022-11-05T22:31:53.968Z,83.10
2022-11-05T22:34:21.120Z,83.10
2022-11-05T22:36:48.107Z,83.20
2022-11-05T22:39:15.602Z,83.20
2022-11-05T22:41:43.122Z,83.20
2022-11-05T22:44:10.831Z,83.30
2022-11-05T22:46:38.407Z,83.30
2022-11-05T22:49:07.366Z,83.30
2022-11-05T22:51:36.558Z,83.30
2022-11-05T22:54:04.090Z,83.30
2022-11-05T22:56:32.818Z,83.30
2022-11-05T22:59:00.061Z,83.40
2022-11-05T23:01:30.385Z,83.30
2022-11-05T23:03:59.519Z,83.40
2022-11-05T23:06:52.648Z,83.40
2022-11-05T23:09:40.828Z,83.40
2022-11-05T23:12:18.018Z,83.30
2022-11-05T23:14:44.941Z,83.30
2022-11-05T23:17:30.635Z,83.40
2022-11-05T23:20:29.450Z,83.50
2022-11-05T23:23:16.771Z,83.50
2022-11-05T23:25:43.762Z,83.60
2022-11-05T23:28:11.695Z,83.50
2022-11-05T23:31:05.950Z,83.50
2022-11-05T23:33:34.732Z,83.50
2022-11-05T23:36:20.159Z,83.50
2022-11-05T23:38:48.382Z,83.50
2022-11-05T23:41:33.661Z,83.50
2022-11-05T23:44:19.422Z,83.60
2022-11-05T23:47:04.660Z,83.70
2022-11-05T23:49:31.922Z,83.70
2022-11-05T23:51:58.765Z,83.70
2022-11-05T23:54:27.167Z,83.60
2022-11-05T23:56:54.084Z,83.70
2022-11-05T23:59:21.166Z,83.80
